0IN2 weather

The Lazy K Airport
Tocsin, Indiana, United States

Public forecast

Using degrees Fahrenheit for public forecast. Weather courtesy of forecast.io.

METAR (pilot weather report)

Closest report is Fort Wayne International Airport, 10.3 nm (19.1 km) NNW. Retrieved 2019/04/20 16:44 UTC (0 seconds ago):

KFWA 201644Z 36011KT 6SM RA BR SCT011 OVC016 06/05 A2970

TAF (pilot weather forecast)

Closest forecast is Fort Wayne International Airport, 10.3 nm (19.1 km) NNW. Retrieved 2019/04/20 12:36 UTC (4 hours ago):

TAF KFWA 201133Z 2012/2112 02016G28KT P6SM -RA OVC018 FM201400 02018G25KT 6SM -RA BR OVC015 TEMPO 2014/2018 3SM RA BR OVC008 FM202300 01008KT P6SM SCT015 BKN060 FM210400 27004KT P6SM SCT060